sensor_id;sensor_type;location;lat;lon;timestamp;pressure;altitude;pressure_sealevel;temperature;humidity
17362;BME280;8798;51.938;4.348;2023-04-29T00:00:54;101135.63;;;11.47;75.73
17362;BME280;8798;51.938;4.348;2023-04-29T00:03:22;101143.72;;;11.47;76.29
17362;BME280;8798;51.938;4.348;2023-04-29T00:05:50;101144.72;;;11.46;76.06
17362;BME280;8798;51.938;4.348;2023-04-29T00:08:18;101142.16;;;11.45;75.68
17362;BME280;8798;51.938;4.348;2023-04-29T00:10:47;101140.50;;;11.44;76.05
17362;BME280;8798;51.938;4.348;2023-04-29T00:13:15;101161.00;;;11.45;75.91
17362;BME280;8798;51.938;4.348;2023-04-29T00:15:43;101157.47;;;11.44;76.07
17362;BME280;8798;51.938;4.348;2023-04-29T00:18:11;101162.84;;;11.44;75.51
17362;BME280;8798;51.938;4.348;2023-04-29T00:20:39;101186.63;;;11.49;76.25
17362;BME280;8798;51.938;4.348;2023-04-29T00:23:07;101190.31;;;11.48;76.22
17362;BME280;8798;51.938;4.348;2023-04-29T00:25:35;101192.31;;;11.46;75.79
17362;BME280;8798;51.938;4.348;2023-04-29T00:28:05;101176.47;;;11.43;75.83
17362;BME280;8798;51.938;4.348;2023-04-29T00:30:33;101170.69;;;11.37;76.04
17362;BME280;8798;51.938;4.348;2023-04-29T00:33:01;101164.59;;;11.35;75.62
17362;BME280;8798;51.938;4.348;2023-04-29T00:35:29;101170.81;;;11.36;75.42
17362;BME280;8798;51.938;4.348;2023-04-29T00:37:57;101178.91;;;11.36;75.77
17362;BME280;8798;51.938;4.348;2023-04-29T00:40:26;101179.72;;;11.36;75.84
17362;BME280;8798;51.938;4.348;2023-04-29T00:42:54;101184.41;;;11.34;76.17
17362;BME280;8798;51.938;4.348;2023-04-29T00:45:24;101175.81;;;11.31;75.67
17362;BME280;8798;51.938;4.348;2023-04-29T00:47:53;101176.78;;;11.30;76.18
17362;BME280;8798;51.938;4.348;2023-04-29T00:50:20;101170.03;;;11.26;75.51
17362;BME280;8798;51.938;4.348;2023-04-29T00:52:48;101155.19;;;11.22;75.64
17362;BME280;8798;51.938;4.348;2023-04-29T00:55:18;101148.38;;;11.17;75.86
17362;BME280;8798;51.938;4.348;2023-04-29T00:57:46;101163.53;;;11.18;75.61
17362;BME280;8798;51.938;4.348;2023-04-29T01:00:15;101169.75;;;11.19;75.81
17362;BME280;8798;51.938;4.348;2023-04-29T01:02:45;101154.91;;;11.15;76.04
17362;BME280;8798;51.938;4.348;2023-04-29T01:05:13;101118.31;;;11.04;75.95
17362;BME280;8798;51.938;4.348;2023-04-29T01:07:47;101109.72;;;11.01;76.04
17362;BME280;8798;51.938;4.348;2023-04-29T01:10:23;101108.16;;;10.98;75.68
17362;BME280;8798;51.938;4.348;2023-04-29T01:12:57;101117.06;;;10.98;75.67
17362;BME280;8798;51.938;4.348;2023-04-29T01:15:29;101122.59;;;10.97;75.45
17362;BME280;8798;51.938;4.348;2023-04-29T01:18:04;101118.34;;;10.94;75.68
17362;BME280;8798;51.938;4.348;2023-04-29T01:20:34;101120.34;;;10.92;75.86
17362;BME280;8798;51.938;4.348;2023-04-29T01:23:03;101118.66;;;10.91;75.54
17362;BME280;8798;51.938;4.348;2023-04-29T01:25:32;101149.78;;;10.94;75.78
17362;BME280;8798;51.938;4.348;2023-04-29T01:28:05;101177.06;;;10.99;75.66
17362;BME280;8798;51.938;4.348;2023-04-29T01:30:43;101172.69;;;10.98;75.44
17362;BME280;8798;51.938;4.348;2023-04-29T01:33:17;101185.97;;;11.00;75.93
17362;BME280;8798;51.938;4.348;2023-04-29T01:35:59;101193.03;;;11.01;75.50
17362;BME280;8798;51.938;4.348;2023-04-29T01:38:36;101218.63;;;11.05;75.60
17362;BME280;8798;51.938;4.348;2023-04-29T01:41:15;101226.69;;;11.05;75.61
17362;BME280;8798;51.938;4.348;2023-04-29T01:43:47;101217.91;;;11.03;75.54
17362;BME280;8798;51.938;4.348;2023-04-29T01:46:17;101230.69;;;11.01;75.97
17362;BME280;8798;51.938;4.348;2023-04-29T01:48:45;101235.06;;;11.02;75.80
17362;BME280;8798;51.938;4.348;2023-04-29T01:51:14;101227.41;;;10.97;75.81
17362;BME280;8798;51.938;4.348;2023-04-29T01:53:41;101231.81;;;10.98;75.97
17362;BME280;8798;51.938;4.348;2023-04-29T01:56:09;101241.56;;;10.99;75.66
17362;BME280;8798;51.938;4.348;2023-04-29T01:58:38;101230.28;;;10.95;75.99
17362;BME280;8798;51.938;4.348;2023-04-29T02:01:06;101228.72;;;10.93;75.45
17362;BME280;8798;51.938;4.348;2023-04-29T02:03:36;101241.16;;;10.94;75.74
17362;BME280;8798;51.938;4.348;2023-04-29T02:06:04;101255.44;;;10.94;76.26
17362;BME280;8798;51.938;4.348;2023-04-29T02:08:33;101266.06;;;10.96;75.90
17362;BME280;8798;51.938;4.348;2023-04-29T02:11:01;101274.13;;;10.96;75.75
17362;BME280;8798;51.938;4.348;2023-04-29T02:13:29;101282.03;;;10.97;75.68
17362;BME280;8798;51.938;4.348;2023-04-29T02:16:06;101293.47;;;11.00;75.92
17362;BME280;8798;51.938;4.348;2023-04-29T02:18:34;101309.31;;;11.03;75.35
17362;BME280;8798;51.938;4.348;2023-04-29T02:21:02;101327.88;;;11.06;75.89
17362;BME280;8798;51.938;4.348;2023-04-29T02:23:30;101334.94;;;11.07;75.54
17362;BME280;8798;51.938;4.348;2023-04-29T02:25:57;101343.84;;;11.07;75.39
17362;BME280;8798;51.938;4.348;2023-04-29T02:28:25;101364.94;;;11.12;75.35
17362;BME280;8798;51.938;4.348;2023-04-29T02:30:53;101388.56;;;11.18;75.83
17362;BME280;8798;51.938;4.348;2023-04-29T02:33:22;101420.41;;;11.23;75.29
17362;BME280;8798;51.938;4.348;2023-04-29T02:35:50;101446.72;;;11.29;75.42
17362;BME280;8798;51.938;4.348;2023-04-29T02:38:18;101451.09;;;11.30;75.18
17362;BME280;8798;51.938;4.348;2023-04-29T02:40:46;101424.91;;;11.22;75.32
17362;BME280;8798;51.938;4.348;2023-04-29T02:43:14;101422.53;;;11.19;75.55
17362;BME280;8798;51.938;4.348;2023-04-29T02:45:42;101405.84;;;11.15;75.50
17362;BME280;8798;51.938;4.348;2023-04-29T02:48:10;101418.28;;;11.16;75.26
17362;BME280;8798;51.938;4.348;2023-04-29T02:50:39;101431.59;;;11.18;75.55
17362;BME280;8798;51.938;4.348;2023-04-29T02:53:07;101431.59;;;11.18;75.40
17362;BME280;8798;51.938;4.348;2023-04-29T02:55:34;101430.72;;;11.17;75.62
17362;BME280;8798;51.938;4.348;2023-04-29T02:58:02;101426.47;;;11.15;75.14
17362;BME280;8798;51.938;4.348;2023-04-29T03:00:30;101432.56;;;11.17;75.44
17362;BME280;8798;51.938;4.348;2023-04-29T03:02:58;101442.47;;;11.16;75.67
17362;BME280;8798;51.938;4.348;2023-04-29T03:05:27;101451.25;;;11.18;75.30
17362;BME280;8798;51.938;4.348;2023-04-29T03:07:56;101455.63;;;11.19;75.25
17362;BME280;8798;51.938;4.348;2023-04-29T03:10:24;101451.25;;;11.18;75.41
17362;BME280;8798;51.938;4.348;2023-04-29T03:12:52;101448.88;;;11.15;75.61
17362;BME280;8798;51.938;4.348;2023-04-29T03:15:19;101446.44;;;11.12;75.53
17362;BME280;8798;51.938;4.348;2023-04-29T03:17:47;101437.69;;;11.10;75.04
17362;BME280;8798;51.938;4.348;2023-04-29T03:20:15;101456.22;;;11.13;75.10
17362;BME280;8798;51.938;4.348;2023-04-29T03:22:43;101469.38;;;11.16;74.96
17362;BME280;8798;51.938;4.348;2023-04-29T03:25:12;101476.44;;;11.17;75.31
17362;BME280;8798;51.938;4.348;2023-04-29T03:27:40;101490.59;;;11.19;74.99
17362;BME280;8798;51.938;4.348;2023-04-29T03:30:09;101486.22;;;11.18;75.46
17362;BME280;8798;51.938;4.348;2023-04-29T03:32:37;101500.38;;;11.21;75.26
17362;BME280;8798;51.938;4.348;2023-04-29T03:35:05;101517.22;;;11.23;74.91
17362;BME280;8798;51.938;4.348;2023-04-29T03:37:33;101521.59;;;11.24;75.31
17362;BME280;8798;51.938;4.348;2023-04-29T03:40:01;101525.97;;;11.25;75.09
17362;BME280;8798;51.938;4.348;2023-04-29T03:42:30;101564.78;;;11.32;74.94
17362;BME280;8798;51.938;4.348;2023-04-29T03:44:58;101560.25;;;11.32;74.75
17362;BME280;8798;51.938;4.348;2023-04-29T03:47:26;101562.09;;;11.32;75.33
17362;BME280;8798;51.938;4.348;2023-04-29T03:49:54;101580.63;;;11.35;74.88
17362;BME280;8798;51.938;4.348;2023-04-29T03:52:22;101591.28;;;11.36;74.86
17362;BME280;8798;51.938;4.348;2023-04-29T03:54:50;101586.91;;;11.35;75.31
17362;BME280;8798;51.938;4.348;2023-04-29T03:57:17;101600.19;;;11.37;74.90
17362;BME280;8798;51.938;4.348;2023-04-29T03:59:46;101611.66;;;11.39;74.56
17362;BME280;8798;51.938;4.348;2023-04-29T04:02:16;101609.97;;;11.38;74.83
17362;BME280;8798;51.938;4.348;2023-04-29T04:04:45;101608.13;;;11.38;75.03
17362;BME280;8798;51.938;4.348;2023-04-29T04:07:13;101602.88;;;11.37;74.51
17362;BME280;8798;51.938;4.348;2023-04-29T04:09:41;101609.25;;;11.36;74.91
17362;BME280;8798;51.938;4.348;2023-04-29T04:12:08;101605.56;;;11.37;75.11
17362;BME280;8798;51.938;4.348;2023-04-29T04:14:36;101612.66;;;11.38;74.52
17362;BME280;8798;51.938;4.348;2023-04-29T04:17:05;101627.69;;;11.40;74.52
17362;BME280;8798;51.938;4.348;2023-04-29T04:19:33;101631.22;;;11.41;74.94
17362;BME280;8798;51.938;4.348;2023-04-29T04:22:02;101632.91;;;11.42;74.89
17362;BME280;8798;51.938;4.348;2023-04-29T04:24:30;101645.38;;;11.43;74.67
17362;BME280;8798;51.938;4.348;2023-04-29T04:26:57;101640.13;;;11.41;74.36
17362;BME280;8798;51.938;4.348;2023-04-29T04:29:26;101641.69;;;11.44;74.55
17362;BME280;8798;51.938;4.348;2023-04-29T04:31:54;101649.91;;;11.43;74.83
17362;BME280;8798;51.938;4.348;2023-04-29T04:34:23;101652.44;;;11.44;74.57
17362;BME280;8798;51.938;4.348;2023-04-29T04:36:51;101652.44;;;11.44;74.59
17362;BME280;8798;51.938;4.348;2023-04-29T04:39:19;101658.69;;;11.45;74.80
17362;BME280;8798;51.938;4.348;2023-04-29T04:41:47;101667.63;;;11.45;74.26
17362;BME280;8798;51.938;4.348;2023-04-29T04:44:15;101668.59;;;11.44;74.25
17362;BME280;8798;51.938;4.348;2023-04-29T04:46:42;101660.69;;;11.43;74.58
17362;BME280;8798;51.938;4.348;2023-04-29T04:49:10;101661.53;;;11.43;74.57
17362;BME280;8798;51.938;4.348;2023-04-29T04:51:42;101667.75;;;11.44;74.24
17362;BME280;8798;51.938;4.348;2023-04-29T04:54:11;101668.59;;;11.44;74.45
17362;BME280;8798;51.938;4.348;2023-04-29T04:56:39;101671.28;;;11.44;74.36
17362;BME280;8798;51.938;4.348;2023-04-29T04:59:07;101671.28;;;11.44;74.43
17362;BME280;8798;51.938;4.348;2023-04-29T05:01:34;101668.59;;;11.44;74.65
17362;BME280;8798;51.938;4.348;2023-04-29T05:04:02;101691.69;;;11.47;74.65
17362;BME280;8798;51.938;4.348;2023-04-29T05:06:30;101700.47;;;11.49;74.05
17362;BME280;8798;51.938;4.348;2023-04-29T05:09:00;101711.13;;;11.50;74.82
17362;BME280;8798;51.938;4.348;2023-04-29T05:11:28;101721.59;;;11.53;74.28
17362;BME280;8798;51.938;4.348;2023-04-29T05:13:56;101728.66;;;11.54;74.20
17362;BME280;8798;51.938;4.348;2023-04-29T05:16:24;101734.19;;;11.53;74.44
17362;BME280;8798;51.938;4.348;2023-04-29T05:18:52;101732.34;;;11.53;74.77
17362;BME280;8798;51.938;4.348;2023-04-29T05:21:19;101728.81;;;11.53;74.15
17362;BME280;8798;51.938;4.348;2023-04-29T05:23:47;101734.19;;;11.53;74.11
17362;BME280;8798;51.938;4.348;2023-04-29T05:26:17;101743.00;;;11.55;74.30
17362;BME280;8798;51.938;4.348;2023-04-29T05:28:44;101741.28;;;11.54;74.02
17362;BME280;8798;51.938;4.348;2023-04-29T05:31:12;101727.97;;;11.52;74.68
17362;BME280;8798;51.938;4.348;2023-04-29T05:33:40;101737.75;;;11.53;74.27
17362;BME280;8798;51.938;4.348;2023-04-29T05:36:08;101750.19;;;11.54;74.76
17362;BME280;8798;51.938;4.348;2023-04-29T05:38:35;101766.94;;;11.58;74.21
17362;BME280;8798;51.938;4.348;2023-04-29T05:41:04;101765.94;;;11.59;74.40
17362;BME280;8798;51.938;4.348;2023-04-29T05:43:33;101767.78;;;11.58;74.63
17362;BME280;8798;51.938;4.348;2023-04-29T05:46:02;101766.09;;;11.57;74.46
17362;BME280;8798;51.938;4.348;2023-04-29T05:48:30;101787.34;;;11.60;74.58
17362;BME280;8798;51.938;4.348;2023-04-29T05:50:58;101778.28;;;11.61;74.46
17362;BME280;8798;51.938;4.348;2023-04-29T05:53:27;101788.19;;;11.61;74.45
17362;BME280;8798;51.938;4.348;2023-04-29T05:55:56;101808.59;;;11.63;74.34
17362;BME280;8798;51.938;4.348;2023-04-29T05:58:23;101817.28;;;11.67;74.63
17362;BME280;8798;51.938;4.348;2023-04-29T06:00:53;101821.66;;;11.68;74.59
17362;BME280;8798;51.938;4.348;2023-04-29T06:03:23;101829.59;;;11.70;74.92
17362;BME280;8798;51.938;4.348;2023-04-29T06:05:51;101841.94;;;11.72;74.74
17362;BME280;8798;51.938;4.348;2023-04-29T06:08:20;101856.81;;;11.76;74.35
17362;BME280;8798;51.938;4.348;2023-04-29T06:10:47;101863.03;;;11.77;74.89
17362;BME280;8798;51.938;4.348;2023-04-29T06:13:18;101870.16;;;11.78;74.47
17362;BME280;8798;51.938;4.348;2023-04-29T06:15:45;101886.88;;;11.81;75.02
17362;BME280;8798;51.938;4.348;2023-04-29T06:18:15;101911.59;;;11.87;74.54
17362;BME280;8798;51.938;4.348;2023-04-29T06:20:43;101915.84;;;11.89;74.41
17362;BME280;8798;51.938;4.348;2023-04-29T06:23:11;101930.03;;;11.91;74.57
17362;BME280;8798;51.938;4.348;2023-04-29T06:25:38;101950.22;;;11.97;74.85
17362;BME280;8798;51.938;4.348;2023-04-29T06:28:06;101957.28;;;11.98;74.41
17362;BME280;8798;51.938;4.348;2023-04-29T06:30:34;101975.03;;;12.00;74.57
17362;BME280;8798;51.938;4.348;2023-04-29T06:33:02;101971.22;;;12.03;74.75
17362;BME280;8798;51.938;4.348;2023-04-29T06:35:31;101980.84;;;12.05;74.32
17362;BME280;8798;51.938;4.348;2023-04-29T06:37:59;102002.13;;;12.09;74.56
17362;BME280;8798;51.938;4.348;2023-04-29T06:40:27;102012.50;;;12.13;74.14
17362;BME280;8798;51.938;4.348;2023-04-29T06:42:57;102028.41;;;12.16;74.50
17362;BME280;8798;51.938;4.348;2023-04-29T06:45:25;102045.16;;;12.20;74.83
17362;BME280;8798;51.938;4.348;2023-04-29T06:47:53;102060.09;;;12.24;74.92
17362;BME280;8798;51.938;4.348;2023-04-29T06:50:21;102085.50;;;12.31;74.82
17362;BME280;8798;51.938;4.348;2023-04-29T06:52:50;102101.41;;;12.34;74.72
17362;BME280;8798;51.938;4.348;2023-04-29T06:55:18;102098.56;;;12.36;74.79
17362;BME280;8798;51.938;4.348;2023-04-29T06:57:46;102097.84;;;12.34;74.50
17362;BME280;8798;51.938;4.348;2023-04-29T07:00:14;102083.69;;;12.32;73.87
17362;BME280;8798;51.938;4.348;2023-04-29T07:02:44;102066.91;;;12.28;74.66
17362;BME280;8798;51.938;4.348;2023-04-29T07:05:13;102065.22;;;12.27;74.15
17362;BME280;8798;51.938;4.348;2023-04-29T07:07:41;102043.94;;;12.24;74.11
17362;BME280;8798;51.938;4.348;2023-04-29T07:10:10;102032.28;;;12.23;74.06
17362;BME280;8798;51.938;4.348;2023-04-29T07:12:38;102028.00;;;12.21;73.66
17362;BME280;8798;51.938;4.348;2023-04-29T07:15:07;102019.19;;;12.19;74.32
17362;BME280;8798;51.938;4.348;2023-04-29T07:17:34;102021.78;;;12.20;73.95
17362;BME280;8798;51.938;4.348;2023-04-29T07:20:03;102028.84;;;12.21;74.09
17362;BME280;8798;51.938;4.348;2023-04-29T07:22:31;102065.22;;;12.27;74.11
17362;BME280;8798;51.938;4.348;2023-04-29T07:24:59;102071.91;;;12.33;73.83
17362;BME280;8798;51.938;4.348;2023-04-29T07:27:28;102077.16;;;12.34;73.37
17362;BME280;8798;51.938;4.348;2023-04-29T07:29:58;102086.81;;;12.37;73.85
17362;BME280;8798;51.938;4.348;2023-04-29T07:32:26;102116.06;;;12.41;73.41
17362;BME280;8798;51.938;4.348;2023-04-29T07:34:54;102119.63;;;12.42;73.69
17362;BME280;8798;51.938;4.348;2023-04-29T07:37:22;102122.03;;;12.45;73.51
17362;BME280;8798;51.938;4.348;2023-04-29T07:39:50;102128.16;;;12.47;73.22
17362;BME280;8798;51.938;4.348;2023-04-29T07:42:18;102120.19;;;12.45;73.32
17362;BME280;8798;51.938;4.348;2023-04-29T07:44:47;102121.91;;;12.46;73.28
17362;BME280;8798;51.938;4.348;2023-04-29T07:47:15;102130.69;;;12.48;72.63
17362;BME280;8798;51.938;4.348;2023-04-29T07:49:43;102121.75;;;12.48;73.32
17362;BME280;8798;51.938;4.348;2023-04-29T07:52:11;102135.97;;;12.50;73.11
17362;BME280;8798;51.938;4.348;2023-04-29T07:54:39;102135.84;;;12.52;72.70
17362;BME280;8798;51.938;4.348;2023-04-29T07:57:07;102164.84;;;12.59;73.13
17362;BME280;8798;51.938;4.348;2023-04-29T07:59:34;102199.94;;;12.69;72.77
17362;BME280;8798;51.938;4.348;2023-04-29T08:02:04;102235.19;;;12.77;73.09
17362;BME280;8798;51.938;4.348;2023-04-29T08:04:31;102261.50;;;12.85;72.41
17362;BME280;8798;51.938;4.348;2023-04-29T08:07:02;102310.09;;;12.95;72.84
17362;BME280;8798;51.938;4.348;2023-04-29T08:09:30;102339.72;;;13.06;72.77
17362;BME280;8798;51.938;4.348;2023-04-29T08:11:58;102383.81;;;13.16;72.59
17362;BME280;8798;51.938;4.348;2023-04-29T08:14:27;102412.72;;;13.25;72.04
17362;BME280;8798;51.938;4.348;2023-04-29T08:16:55;102443.63;;;13.32;72.44
17362;BME280;8798;51.938;4.348;2023-04-29T08:19:24;102473.38;;;13.42;72.53
17362;BME280;8798;51.938;4.348;2023-04-29T08:21:51;102460.03;;;13.41;72.31
17362;BME280;8798;51.938;4.348;2023-04-29T08:24:20;102411.38;;;13.31;71.94
17362;BME280;8798;51.938;4.348;2023-04-29T08:26:49;102407.09;;;13.28;72.29
17362;BME280;8798;51.938;4.348;2023-04-29T08:29:17;102365.41;;;13.21;71.84
17362;BME280;8798;51.938;4.348;2023-04-29T08:31:46;102338.91;;;13.15;71.71
17362;BME280;8798;51.938;4.348;2023-04-29T08:34:14;102334.41;;;13.16;71.80
17362;BME280;8798;51.938;4.348;2023-04-29T08:36:43;102367.81;;;13.24;71.76
17362;BME280;8798;51.938;4.348;2023-04-29T08:39:11;102384.38;;;13.31;72.03
17362;BME280;8798;51.938;4.348;2023-04-29T08:41:38;102395.75;;;13.34;71.38
17362;BME280;8798;51.938;4.348;2023-04-29T08:44:08;102380.84;;;13.30;71.44
17362;BME280;8798;51.938;4.348;2023-04-29T08:46:37;102366.63;;;13.28;71.47
17362;BME280;8798;51.938;4.348;2023-04-29T08:49:06;102325.88;;;13.20;71.03
17362;BME280;8798;51.938;4.348;2023-04-29T08:51:34;102317.09;;;13.18;71.61
17362;BME280;8798;51.938;4.348;2023-04-29T08:54:04;102297.59;;;13.15;71.24
17362;BME280;8798;51.938;4.348;2023-04-29T08:56:32;102284.25;;;13.13;70.99
17362;BME280;8798;51.938;4.348;2023-04-29T08:59:01;102276.28;;;13.11;70.99
17362;BME280;8798;51.938;4.348;2023-04-29T09:01:29;102255.94;;;13.07;70.97
17362;BME280;8798;51.938;4.348;2023-04-29T09:04:05;102242.47;;;13.07;71.01
17362;BME280;8798;51.938;4.348;2023-04-29T09:06:34;102286.69;;;13.16;70.74
17362;BME280;8798;51.938;4.348;2023-04-29T09:09:05;102356.28;;;13.33;71.18
17362;BME280;8798;51.938;4.348;2023-04-29T09:11:33;102409.94;;;13.48;71.07
17362;BME280;8798;51.938;4.348;2023-04-29T09:14:02;102448.66;;;13.58;70.59
17362;BME280;8798;51.938;4.348;2023-04-29T09:16:30;102465.91;;;13.67;70.96
17362;BME280;8798;51.938;4.348;2023-04-29T09:18:58;102537.38;;;13.84;70.52
17362;BME280;8798;51.938;4.348;2023-04-29T09:21:27;102607.91;;;14.02;70.27
17362;BME280;8798;51.938;4.348;2023-04-29T09:23:59;102633.16;;;14.12;70.39
17362;BME280;8798;51.938;4.348;2023-04-29T09:26:40;102664.94;;;14.19;70.65
17362;BME280;8798;51.938;4.348;2023-04-29T09:29:09;102653.25;;;14.19;70.48
17362;BME280;8798;51.938;4.348;2023-04-29T09:31:39;102623.94;;;14.14;70.31
17362;BME280;8798;51.938;4.348;2023-04-29T09:34:08;102613.25;;;14.13;70.08
17362;BME280;8798;51.938;4.348;2023-04-29T09:36:39;102603.28;;;14.13;69.95
17362;BME280;8798;51.938;4.348;2023-04-29T09:39:08;102580.22;;;14.09;70.05
17362;BME280;8798;51.938;4.348;2023-04-29T09:41:41;102549.19;;;14.04;69.95
17362;BME280;8798;51.938;4.348;2023-04-29T09:44:09;102538.53;;;14.02;69.78
17362;BME280;8798;51.938;4.348;2023-04-29T09:46:37;102555.88;;;14.09;69.68
17362;BME280;8798;51.938;4.348;2023-04-29T09:49:22;102560.16;;;14.12;69.39
17362;BME280;8798;51.938;4.348;2023-04-29T09:51:51;102547.66;;;14.11;69.60
17362;BME280;8798;51.938;4.348;2023-04-29T09:54:20;102548.38;;;14.13;69.46
17362;BME280;8798;51.938;4.348;2023-04-29T09:56:51;102595.81;;;14.27;69.42
17362;BME280;8798;51.938;4.348;2023-04-29T09:59:20;102672.66;;;14.45;68.95
17362;BME280;8798;51.938;4.348;2023-04-29T10:01:48;102734.31;;;14.62;69.11
17362;BME280;8798;51.938;4.348;2023-04-29T10:04:18;102783.44;;;14.79;68.67
17362;BME280;8798;51.938;4.348;2023-04-29T10:06:48;102836.22;;;14.94;68.23
17362;BME280;8798;51.938;4.348;2023-04-29T10:09:18;102907.72;;;15.13;68.55
17362;BME280;8798;51.938;4.348;2023-04-29T10:11:48;102965.00;;;15.29;68.62
17362;BME280;8798;51.938;4.348;2023-04-29T10:14:18;102994.03;;;15.38;68.48
17362;BME280;8798;51.938;4.348;2023-04-29T10:16:48;102992.75;;;15.42;68.24
17362;BME280;8798;51.938;4.348;2023-04-29T10:19:24;103015.50;;;15.51;68.06
17362;BME280;8798;51.938;4.348;2023-04-29T10:21:54;103032.22;;;15.56;67.99
17362;BME280;8798;51.938;4.348;2023-04-29T10:24:25;103007.97;;;15.55;68.07
17362;BME280;8798;51.938;4.348;2023-04-29T10:26:53;102996.88;;;15.58;67.79
17362;BME280;8798;51.938;4.348;2023-04-29T10:29:26;102965.75;;;15.52;67.78
17362;BME280;8798;51.938;4.348;2023-04-29T10:31:57;102923.81;;;15.46;67.42
17362;BME280;8798;51.938;4.348;2023-04-29T10:34:27;102901.53;;;15.43;67.26
17362;BME280;8798;51.938;4.348;2023-04-29T10:36:56;102893.00;;;15.47;67.33
17362;BME280;8798;51.938;4.348;2023-04-29T10:39:30;102843.34;;;15.37;67.05
17362;BME280;8798;51.938;4.348;2023-04-29T10:42:04;102830.81;;;15.36;66.91
17362;BME280;8798;51.938;4.348;2023-04-29T10:47:41;102888.78;;;15.55;66.63
17362;BME280;8798;51.938;4.348;2023-04-29T10:50:08;102887.53;;;15.59;66.59
17362;BME280;8798;51.938;4.348;2023-04-29T10:52:53;102876.56;;;15.60;66.40
17362;BME280;8798;51.938;4.348;2023-04-29T10:55:23;102901.13;;;15.68;66.21
17362;BME280;8798;51.938;4.348;2023-04-29T10:57:52;102933.72;;;15.78;66.37
17362;BME280;8798;51.938;4.348;2023-04-29T11:00:25;102926.31;;;15.80;66.04
17362;BME280;8798;51.938;4.348;2023-04-29T11:02:53;102902.19;;;15.77;66.07
17362;BME280;8798;51.938;4.348;2023-04-29T11:05:29;102908.06;;;15.82;65.97
17362;BME280;8798;51.938;4.348;2023-04-29T11:08:08;102929.09;;;15.90;65.67
17362;BME280;8798;51.938;4.348;2023-04-29T11:10:36;102957.22;;;15.99;65.89
17362;BME280;8798;51.938;4.348;2023-04-29T11:13:20;102972.69;;;16.08;65.67
17362;BME280;8798;51.938;4.348;2023-04-29T11:15:49;102968.97;;;16.09;65.34
17362;BME280;8798;51.938;4.348;2023-04-29T11:18:18;102979.28;;;16.15;65.28
17362;BME280;8798;51.938;4.348;2023-04-29T11:21:12;102986.13;;;16.19;65.32
17362;BME280;8798;51.938;4.348;2023-04-29T11:23:40;102997.19;;;16.27;65.20
17362;BME280;8798;51.938;4.348;2023-04-29T11:26:10;103023.63;;;16.35;64.91
17362;BME280;8798;51.938;4.348;2023-04-29T11:28:40;103031.94;;;16.43;65.05
17362;BME280;8798;51.938;4.348;2023-04-29T11:31:10;103051.25;;;16.50;64.79
17362;BME280;8798;51.938;4.348;2023-04-29T11:33:38;103096.31;;;16.62;64.44
17362;BME280;8798;51.938;4.348;2023-04-29T11:36:06;103133.81;;;16.78;64.49
17362;BME280;8798;51.938;4.348;2023-04-29T11:38:38;103123.81;;;16.79;64.44
17362;BME280;8798;51.938;4.348;2023-04-29T11:41:09;103124.53;;;16.81;64.28
17362;BME280;8798;51.938;4.348;2023-04-29T11:43:37;103093.97;;;16.79;64.43
17362;BME280;8798;51.938;4.348;2023-04-29T11:46:12;103046.75;;;16.70;63.41
17362;BME280;8798;51.938;4.348;2023-04-29T11:48:45;102975.56;;;16.56;63.85
17362;BME280;8798;51.938;4.348;2023-04-29T11:51:14;102919.44;;;16.47;63.77
17362;BME280;8798;51.938;4.348;2023-04-29T11:53:42;102933.44;;;16.52;63.74
17362;BME280;8798;51.938;4.348;2023-04-29T11:56:10;102920.00;;;16.51;63.67
17362;BME280;8798;51.938;4.348;2023-04-29T11:58:38;102882.59;;;16.45;63.77
17362;BME280;8798;51.938;4.348;2023-04-29T12:01:08;102855.72;;;16.42;63.24
17362;BME280;8798;51.938;4.348;2023-04-29T12:03:38;102815.63;;;16.36;63.45
17362;BME280;8798;51.938;4.348;2023-04-29T12:06:06;102780.03;;;16.29;63.45
17362;BME280;8798;51.938;4.348;2023-04-29T12:08:34;102739.22;;;16.21;63.11
17362;BME280;8798;51.938;4.348;2023-04-29T12:11:02;102690.41;;;16.11;63.25
17362;BME280;8798;51.938;4.348;2023-04-29T12:13:30;102652.16;;;16.04;62.90
17362;BME280;8798;51.938;4.348;2023-04-29T12:15:58;102621.91;;;15.99;63.25
17362;BME280;8798;51.938;4.348;2023-04-29T12:18:27;102578.53;;;15.89;63.08
17362;BME280;8798;51.938;4.348;2023-04-29T12:20:57;102538.47;;;15.83;63.11
17362;BME280;8798;51.938;4.348;2023-04-29T12:23:26;102541.19;;;15.83;62.99
17362;BME280;8798;51.938;4.348;2023-04-29T12:25:56;102551.75;;;15.86;63.02
17362;BME280;8798;51.938;4.348;2023-04-29T12:28:24;102594.81;;;15.99;62.82
17362;BME280;8798;51.938;4.348;2023-04-29T12:30:53;102637.88;;;16.12;62.84
17362;BME280;8798;51.938;4.348;2023-04-29T12:33:24;102657.03;;;16.20;62.79
17362;BME280;8798;51.938;4.348;2023-04-29T12:36:01;102669.28;;;16.24;62.69
17362;BME280;8798;51.938;4.348;2023-04-29T12:38:35;102686.97;;;16.28;62.73
17362;BME280;8798;51.938;4.348;2023-04-29T12:41:03;102708.13;;;16.34;62.96
17362;BME280;8798;51.938;4.348;2023-04-29T12:43:33;102739.78;;;16.44;62.58
17362;BME280;8798;51.938;4.348;2023-04-29T12:46:02;102758.06;;;16.51;62.39
17362;BME280;8798;51.938;4.348;2023-04-29T12:48:30;102768.50;;;16.56;62.54
17362;BME280;8798;51.938;4.348;2023-04-29T12:51:01;102768.19;;;16.59;62.16
17362;BME280;8798;51.938;4.348;2023-04-29T12:53:29;102769.94;;;16.60;62.21
17362;BME280;8798;51.938;4.348;2023-04-29T12:55:57;102789.91;;;16.69;62.27
17362;BME280;8798;51.938;4.348;2023-04-29T12:58:27;102826.19;;;16.77;61.89
17362;BME280;8798;51.938;4.348;2023-04-29T13:00:55;102817.94;;;16.79;62.04
17362;BME280;8798;51.938;4.348;2023-04-29T13:03:23;102849.50;;;16.90;61.99
17362;BME280;8798;51.938;4.348;2023-04-29T13:05:51;102902.53;;;17.04;61.92
17362;BME280;8798;51.938;4.348;2023-04-29T13:08:21;102924.22;;;17.13;61.57
17362;BME280;8798;51.938;4.348;2023-04-29T13:10:49;102932.13;;;17.16;61.74
17362;BME280;8798;51.938;4.348;2023-04-29T13:13:17;102907.94;;;17.13;61.63